Flight Track Log - Related Links

Times and Time Zones

All times are in EDT time to prevent confusion due to time zone crossing. See the N1944E flight status page for this flight to view local times or setup timezone preferences in your user account.

Time Position Orientation Groundspeed Altitude Reporting Facility
EDT Latitude Longitude Course Direction KTS MPH feet Rate Location/Type
Thu 08:56:58 PM 43.5447 -110.7772 210° Southwest 135 155 8,100  Level Salt Lake Center
Thu 08:57:59 PM 43.5083 -110.8022 206° Southwest 140 161 9,100 927 Climbing Salt Lake Center
Thu 08:59:00 PM 43.7974 -110.3891 53° Northeast  Level Estimated
Thu 08:59:01 PM 43.4725 -110.8253 205° Southwest 142 163 10,000  Level Salt Lake Center
Thu 09:00:00 PM 43.8290 -110.3308 53° Northeast  Level Estimated
Thu 09:00:03 PM 43.4364 -110.8497 206° Southwest 143 165 11,000  Level Salt Lake Center
Thu 09:01:00 PM 43.8605 -110.2724 53° Northeast  Level Estimated
Thu 09:01:05 PM 43.3967 -110.8758 206° Southwest 153 176 12,100  Level Salt Lake Center
Thu 09:02:07 PM 43.3606 -110.8967 203° Southwest 147 169 13,200 1,113 Climbing Salt Lake Center
Thu 09:03:09 PM 43.3533 -110.8450 101° East 177 204 14,400 1,073 Climbing Salt Lake Center
Thu 09:04:10 PM 43.3847 -110.8033 44° Northeast 160 184 15,400 927 Climbing Salt Lake Center
Thu 09:05:12 PM 43.4167 -110.7600 45° Northeast 162 186 16,300 823 Climbing Salt Lake Center
Thu 09:06:14 PM 43.4539 -110.7208 37° Northeast 167 192 17,100 390 Climbing Salt Lake Center
Thu 09:07:15 PM 43.4894 -110.6617 50° Northeast 204 235 17,100  Level Salt Lake Center
Thu 09:08:17 PM 43.5381 -110.5964 44° Northeast 207 238 17,100 -48 Level Salt Lake Center
Thu 09:09:19 PM 43.5761 -110.5408 47° Northeast 202 232 17,000 49 Descending Salt Lake Center
Thu 09:10:20 PM 43.6100 -110.4778 53° Northeast 205 236 17,200 49 Climbing Salt Lake Center
Thu 09:11:22 PM 43.6486 -110.4222 46° Northeast 202 232 17,100 -48 Descending Salt Lake Center
Thu 09:12:24 PM 43.6906 -110.3686 43° Northeast 204 235 17,100  Level Salt Lake Center
Thu 09:13:25 PM 43.7294 -110.3108 47° Northeast 206 237 17,100  Level Salt Lake Center
Thu 09:14:27 PM 43.7758 -110.2403 48° Northeast 208 239 17,100 -97 Level Salt Lake Center
Thu 09:15:29 PM 43.8167 -110.1817 46° Northeast 210 242 16,900 -49 Descending Salt Lake Center
Thu 09:16:30 PM 43.8547 -110.1250 47° Northeast 204 235 17,000 49 Climbing Salt Lake Center
Thu 09:17:32 PM 43.8928 -110.0692 47° Northeast 202 232 17,000 -48 Level Salt Lake Center
Thu 09:18:34 PM 43.9344 -110.0103 45° Northeast 199 229 16,900  Descending Salt Lake Center
Thu 09:19:35 PM 43.9714 -109.9561 47° Northeast 200 230 17,000 49 Climbing Salt Lake Center
Thu 09:20:37 PM 44.0156 -109.8956 45° Northeast 200 230 17,000 -194 Level Salt Lake Center
Thu 09:21:39 PM 44.0517 -109.8422 47° Northeast 199 229 16,600 -439 Descending Salt Lake Center
Thu 09:22:40 PM 44.0903 -109.7808 49° Northeast 213 245 16,100 -780 Descending Salt Lake Center
Thu 09:23:42 PM 44.1328 -109.7053 52° Northeast 220 253 15,000 -537 Descending Salt Lake Center
Thu 09:24:43 PM 44.1733 -109.6428 48° Northeast 225 259 15,000  Level Salt Lake Center
Thu 09:25:45 PM 44.2181 -109.5803 45° Northeast 210 242 15,000  Level Salt Lake Center

Login

Don't have an account? Register now (free) for customized features, flight alerts, and more!